Time;durP1;ratioP1;P1;durP2;ratioP2;P2;SDS_P1;SDS_P2;PMS_P1;PMS_P2;Temp;Humidity;BMP_temperature;BMP_pressure;BME280_temperature;BME280_humidity;BME280_pressure;Samples;Min_cycle;Max_cycle;Signal;HPM_P1;HPM_P2
2022/10/18 00:00:09;;;;;;;7.47;5.47;;;;;;;17.95;73.48;101697.00;4975739;28;20144;-62
2022/10/18 00:02:36;;;;;;;8.80;4.63;;;;;;;17.98;74.78;101693.28;4989145;28;20050;-62
2022/10/18 00:05:04;;;;;;;13.68;5.25;;;;;;;18.00;76.45;101694.00;4964405;28;20495;-61
2022/10/18 00:07:31;;;;;;;8.40;6.63;;;;;;;17.98;81.63;101695.09;4987858;28;20093;-62
2022/10/18 00:09:59;;;;;;;8.50;5.55;;;;;;;17.94;79.70;101697.13;4990590;28;20049;-63
2022/10/18 00:12:26;;;;;;;12.98;5.30;;;;;;;17.94;80.90;101703.31;4988789;28;20287;-63
2022/10/18 00:14:53;;;;;;;15.10;5.30;;;;;;;17.95;79.17;101706.81;4988853;28;20082;-60
2022/10/18 00:17:20;;;;;;;11.20;5.88;;;;;;;17.96;79.91;101705.84;4988599;28;20129;-61
2022/10/18 00:19:49;;;;;;;9.93;5.60;;;;;;;17.98;79.27;101703.94;4987815;28;20133;-59
2022/10/18 00:22:16;;;;;;;8.90;5.25;;;;;;;18.01;79.28;101705.50;4989021;28;20572;-59
2022/10/18 00:24:43;;;;;;;11.90;6.25;;;;;;;18.03;83.86;101708.94;4979038;28;20093;-62
2022/10/18 00:27:10;;;;;;;8.10;5.78;;;;;;;17.98;81.83;101709.28;4987755;28;20192;-61
2022/10/18 00:29:38;;;;;;;9.55;6.22;;;;;;;18.04;84.49;101708.81;4986825;28;20046;-63
2022/10/18 00:32:05;;;;;;;11.35;6.32;;;;;;;18.01;83.54;101722.34;4988524;28;20065;-62
2022/10/18 00:34:32;;;;;;;10.52;7.45;;;;;;;18.04;85.08;101714.13;4985780;28;20129;-61
2022/10/18 00:36:59;;;;;;;8.00;6.00;;;;;;;18.03;85.36;101723.09;4987995;28;20064;-60
2022/10/18 00:39:26;;;;;;;7.25;5.95;;;;;;;18.02;85.83;101724.06;4984428;28;20054;-63
2022/10/18 00:41:53;;;;;;;9.10;6.57;;;;;;;18.05;86.60;101723.81;4984193;28;20590;-63
2022/10/18 00:44:23;;;;;;;10.98;6.63;;;;;;;18.00;90.42;101725.97;4985929;28;20046;-62
2022/10/18 00:46:52;;;;;;;15.40;8.38;;;;;;;17.97;91.58;101720.91;4988351;28;20046;-62
2022/10/18 00:49:22;;;;;;;16.02;7.95;;;;;;;17.87;93.09;101723.34;4981423;28;20151;-61
2022/10/18 00:52:04;;;;;;;15.45;7.53;;;;;;;17.89;92.05;101720.59;4984144;28;20069;-62
2022/10/18 00:54:32;;;;;;;11.80;8.30;;;;;;;17.88;93.75;101724.22;4970750;28;20422;-62
2022/10/18 00:57:00;;;;;;;12.05;7.38;;;;;;;17.84;93.42;101717.41;4956743;28;20149;-61
2022/10/18 00:59:28;;;;;;;16.95;8.35;;;;;;;17.86;94.14;101723.47;4965144;28;20046;-62
2022/10/18 01:01:55;;;;;;;11.27;8.80;;;;;;;17.93;93.79;101724.75;4967246;28;20097;-61
2022/10/18 01:04:22;;;;;;;14.38;8.43;;;;;;;17.91;93.06;101719.50;4988022;28;20046;-60
2022/10/18 01:07:36;;;;;;;10.65;8.10;;;;;;;17.89;94.23;101720.59;4988041;28;20486;-62
2022/10/18 01:10:19;;;;;;;12.77;8.13;;;;;;;17.83;95.57;101721.91;4945242;28;20647;-61
2022/10/18 01:12:58;;;;;;;9.73;8.02;;;;;;;17.82;94.49;101722.84;4983733;28;20443;-63
2022/10/18 01:15:55;;;;;;;17.65;7.65;;;;;;;17.77;96.99;101721.47;4983140;28;20069;-63
2022/10/18 01:18:29;;;;;;;13.32;7.20;;;;;;;17.75;96.34;101729.59;4940869;28;20050;-62
2022/10/18 01:21:05;;;;;;;8.48;6.70;;;;;;;17.81;95.35;101728.28;4970925;28;20050;-64
2022/10/18 01:23:38;;;;;;;12.93;7.68;;;;;;;17.77;96.55;101722.31;4986404;28;20217;-62
2022/10/18 01:26:24;;;;;;;9.23;6.53;;;;;;;17.80;95.23;101726.59;4987142;28;20073;-63
2022/10/18 01:29:20;;;;;;;13.05;7.38;;;;;;;17.71;97.93;101726.25;4982977;28;20167;-64
2022/10/18 01:31:50;;;;;;;10.55;7.00;;;;;;;17.72;96.77;101706.63;4988557;28;20074;-60
2022/10/18 01:34:23;;;;;;;18.38;9.07;;;;;;;17.71;97.84;101707.59;4970789;28;20054;-61
2022/10/18 01:36:51;;;;;;;9.35;7.65;;;;;;;17.65;98.71;101707.19;4969233;28;20081;-62
2022/10/18 01:39:27;;;;;;;12.30;7.43;;;;;;;17.62;98.96;101705.59;4970627;28;20787;-62
2022/10/18 01:41:55;;;;;;;15.52;8.45;;;;;;;17.58;99.46;101700.59;4956115;28;20054;-62
2022/10/18 01:44:25;;;;;;;14.10;8.30;;;;;;;17.63;97.49;101709.97;4973236;28;20060;-62
2022/10/18 01:46:54;;;;;;;10.15;8.13;;;;;;;17.66;97.26;101708.91;4972163;28;20491;-61
2022/10/18 01:49:21;;;;;;;11.07;8.82;;;;;;;17.59;100.00;101707.63;4970269;28;20050;-62
2022/10/18 01:51:48;;;;;;;12.55;8.20;;;;;;;17.53;100.00;101714.25;4988018;28;20503;-61
2022/10/18 01:54:21;;;;;;;12.98;8.32;;;;;;;17.52;100.00;101709.03;4989338;28;20597;-62
2022/10/18 01:57:22;;;;;;;10.75;8.32;;;;;;;17.55;100.00;101727.44;4968626;28;20137;-62
2022/10/18 02:00:00;;;;;;;11.75;8.52;;;;;;;17.52;100.00;101723.19;4972213;28;20137;-61
2022/10/18 02:02:39;;;;;;;12.60;8.95;;;;;;;17.50;100.00;101718.94;4988620;28;20054;-62
2022/10/18 02:05:21;;;;;;;12.40;8.85;;;;;;;17.52;100.00;101707.22;4987489;28;20059;-63
2022/10/18 02:07:57;;;;;;;12.35;9.00;;;;;;;17.54;99.40;101713.28;4990072;28;20058;-61
2022/10/18 02:10:47;;;;;;;10.75;8.18;;;;;;;17.53;100.00;101708.06;4974466;28;20145;-62
2022/10/18 02:13:18;;;;;;;10.93;8.25;;;;;;;17.53;99.13;101698.28;4969561;28;20065;-63
2022/10/18 02:15:47;;;;;;;15.27;9.25;;;;;;;17.49;100.00;101704.78;4972672;28;20502;-62
2022/10/18 02:18:24;;;;;;;15.80;7.95;;;;;;;17.46;99.91;101699.66;4988908;28;20529;-62
2022/10/18 02:20:52;;;;;;;12.93;8.18;;;;;;;17.52;98.91;101704.56;4966239;28;20063;-61
2022/10/18 02:23:22;;;;;;;12.52;7.72;;;;;;;17.55;98.96;101709.66;4972535;28;20042;-60
2022/10/18 02:25:49;;;;;;;13.07;9.07;;;;;;;17.55;100.00;101712.31;4989488;28;20506;-61
2022/10/18 02:28:17;;;;;;;14.02;9.10;;;;;;;17.44;100.00;101717.56;4986852;28;20073;-61
2022/10/18 02:31:00;;;;;;;10.50;8.07;;;;;;;17.40;100.00;101708.09;4970828;28;20133;-62
2022/10/18 02:33:31;;;;;;;11.75;9.80;;;;;;;17.46;100.00;101713.81;4955446;28;20563;-61
2022/10/18 02:36:03;;;;;;;10.48;8.45;;;;;;;17.46;100.00;101710.31;4985701;28;20134;-59
2022/10/18 02:38:30;;;;;;;10.32;7.22;;;;;;;17.47;99.94;101714.66;4969729;28;20046;-61
2022/10/18 02:40:58;;;;;;;10.90;8.30;;;;;;;17.52;100.00;101722.34;4971383;28;20133;-60
2022/10/18 02:43:25;;;;;;;13.43;8.05;;;;;;;17.49;98.60;101723.41;4989152;28;20097;-61
2022/10/18 02:45:52;;;;;;;12.35;7.78;;;;;;;17.50;99.42;101730.44;4992258;28;20133;-60
2022/10/18 02:48:19;;;;;;;13.30;9.30;;;;;;;17.49;100.00;101734.06;4974541;28;20069;-61
2022/10/18 02:50:47;;;;;;;12.23;9.07;;;;;;;17.41;100.00;101736.41;4991623;28;20050;-59
2022/10/18 02:53:14;;;;;;;10.98;8.60;;;;;;;17.38;100.00;101732.16;4987499;28;20142;-60
2022/10/18 02:55:41;;;;;;;11.88;9.55;;;;;;;17.37;100.00;101741.06;4975327;28;20306;-62
2022/10/18 02:58:08;;;;;;;10.13;8.93;;;;;;;17.33;100.00;101736.06;4991944;28;20042;-62
2022/10/18 03:00:35;;;;;;;12.07;9.27;;;;;;;17.31;100.00;101730.03;4989685;28;20331;-61
2022/10/18 03:03:03;;;;;;;12.57;9.45;;;;;;;17.27;100.00;101733.84;4991591;28;20133;-61
2022/10/18 03:05:30;;;;;;;10.48;8.95;;;;;;;17.24;100.00;101737.56;4990959;28;20472;-61
2022/10/18 03:07:57;;;;;;;11.80;9.15;;;;;;;17.19;100.00;101731.72;4992217;28;20471;-62
2022/10/18 03:10:24;;;;;;;13.95;9.70;;;;;;;17.17;100.00;101747.78;4985832;28;20070;-61
2022/10/18 03:12:51;;;;;;;10.93;9.52;;;;;;;17.13;100.00;101740.97;4991375;28;20101;-61
2022/10/18 03:15:18;;;;;;;14.77;9.93;;;;;;;17.09;100.00;101746.63;4990783;28;20058;-61
2022/10/18 03:17:45;;;;;;;13.18;9.30;;;;;;;17.09;100.00;101755.44;4992571;28;20138;-63
2022/10/18 03:20:13;;;;;;;12.20;9.18;;;;;;;17.04;100.00;101764.69;4991548;28;20077;-62
2022/10/18 03:22:40;;;;;;;12.50;9.32;;;;;;;16.97;100.00;101766.91;4988777;28;20149;-61
2022/10/18 03:25:07;;;;;;;11.68;9.38;;;;;;;16.97;100.00;101780.22;4983989;28;20146;-61
2022/10/18 03:27:34;;;;;;;13.52;9.55;;;;;;;16.95;100.00;101776.81;4992298;28;20145;-61
2022/10/18 03:30:02;;;;;;;12.73;9.82;;;;;;;16.94;100.00;101770.66;4990639;28;20134;-61
2022/10/18 03:32:29;;;;;;;15.90;10.10;;;;;;;16.92;100.00;101771.69;4971918;28;20081;-61
2022/10/18 03:34:56;;;;;;;9.68;8.23;;;;;;;16.93;100.00;101768.06;4990041;28;20146;-62
2022/10/18 03:37:23;;;;;;;14.50;8.18;;;;;;;17.00;100.00;101752.56;5013196;23;20176;-84
2022/10/18 03:39:51;;;;;;;15.25;8.75;;;;;;;17.02;100.00;101750.63;4943871;28;20101;-84
2022/10/18 03:42:18;;;;;;;12.50;7.63;;;;;;;17.01;100.00;101744.47;4954356;28;20042;-83
2022/10/18 03:44:46;;;;;;;9.65;8.30;;;;;;;17.03;100.00;101741.72;4949748;29;20042;-83
2022/10/18 03:47:13;;;;;;;10.73;8.02;;;;;;;17.07;100.00;101738.75;4953815;28;20662;-84
2022/10/18 03:49:41;;;;;;;10.95;8.43;;;;;;;17.04;100.00;101760.22;4931431;28;20039;-84
2022/10/18 03:52:08;;;;;;;10.85;8.05;;;;;;;17.02;100.00;101756.84;4940477;28;20035;-85
2022/10/18 03:54:36;;;;;;;8.48;6.93;;;;;;;17.02;100.00;101750.63;4969852;28;20110;-85
2022/10/18 03:57:04;;;;;;;7.30;6.60;;;;;;;17.09;100.00;101763.44;4949263;28;20065;-85
2022/10/18 03:59:31;;;;;;;9.38;8.25;;;;;;;17.09;100.00;101759.91;4945415;28;20050;-84
2022/10/18 04:01:59;;;;;;;12.68;8.70;;;;;;;17.03;100.00;101757.69;4951949;28;20039;-83
2022/10/18 04:04:26;;;;;;;13.05;7.47;;;;;;;17.01;100.00;101747.13;4965433;28;20142;-84
2022/10/18 04:06:54;;;;;;;8.75;7.50;;;;;;;17.01;100.00;101749.78;4952091;28;20058;-84
2022/10/18 04:09:21;;;;;;;8.48;6.65;;;;;;;17.03;100.00;101747.03;4948750;28;20047;-84
2022/10/18 04:11:50;;;;;;;7.05;6.22;;;;;;;17.07;100.00;101752.06;4966659;28;20039;-83
2022/10/18 04:14:20;;;;;;;8.25;7.22;;;;;;;17.14;100.00;101758.63;4964306;28;20494;-84
2022/10/18 04:16:48;;;;;;;10.00;7.30;;;;;;;17.10;100.00;101750.97;4956678;28;20146;-83
2022/10/18 04:19:15;;;;;;;7.63;6.53;;;;;;;17.04;100.00;101754.91;4972605;28;20054;-82
2022/10/18 04:21:43;;;;;;;8.90;6.82;;;;;;;17.03;100.00;101758.53;4977970;28;20063;-81
2022/10/18 04:24:11;;;;;;;10.52;7.32;;;;;;;17.03;99.00;101757.69;4955601;28;20118;-83
2022/10/18 04:26:38;;;;;;;10.00;7.55;;;;;;;17.04;98.62;101760.22;4953585;28;20050;-82
2022/10/18 04:29:06;;;;;;;6.70;5.93;;;;;;;17.06;98.51;101752.13;4961316;28;20066;-82
2022/10/18 04:31:34;;;;;;;10.57;6.90;;;;;;;17.05;99.97;101742.47;4975248;28;20077;-81
2022/10/18 04:34:03;;;;;;;11.57;7.32;;;;;;;17.01;100.00;101748.94;4952197;28;20046;-83
2022/10/18 04:36:30;;;;;;;9.52;7.28;;;;;;;16.89;100.00;101759.47;4954880;28;20070;-83
2022/10/18 04:38:59;;;;;;;12.65;8.38;;;;;;;16.82;100.00;101757.31;4969540;28;20050;-82
2022/10/18 04:41:26;;;;;;;8.10;7.07;;;;;;;16.75;100.00;101758.66;4949933;28;20054;-82
2022/10/18 04:43:54;;;;;;;8.25;5.50;;;;;;;16.73;100.00;101760.59;4949168;28;20062;-82
2022/10/18 04:46:21;;;;;;;8.73;7.10;;;;;;;16.75;100.00;101758.66;4959726;28;20038;-83
2022/10/18 04:48:52;;;;;;;8.25;5.93;;;;;;;16.75;100.00;101758.66;4940378;28;20119;-82
2022/10/18 04:51:19;;;;;;;11.57;6.05;;;;;;;16.79;100.00;101746.88;4951610;28;20054;-83
2022/10/18 04:53:47;;;;;;;8.48;5.88;;;;;;;16.80;99.82;101749.47;4950435;28;20107;-83
2022/10/18 04:56:15;;;;;;;6.85;5.82;;;;;;;16.76;100.00;101739.97;4960315;28;20074;-83
2022/10/18 04:58:43;;;;;;;7.90;5.95;;;;;;;16.73;100.00;101748.16;4949264;28;20058;-81
2022/10/18 05:01:11;;;;;;;8.20;5.32;;;;;;;16.77;100.00;101746.13;4953552;28;20046;-82
2022/10/18 05:03:38;;;;;;;7.10;6.03;;;;;;;16.74;100.00;101749.00;4946007;28;20526;-82
2022/10/18 05:06:06;;;;;;;8.57;5.72;;;;;;;16.69;100.00;101743.94;4948319;28;20601;-81
2022/10/18 05:08:34;;;;;;;10.82;5.75;;;;;;;16.67;100.00;101746.72;4939960;28;20536;-82
2022/10/18 05:11:02;;;;;;;8.05;4.95;;;;;;;16.67;99.79;101741.41;4949285;28;20051;-82
2022/10/18 05:13:31;;;;;;;9.05;6.25;;;;;;;16.67;99.54;101741.41;4951622;28;20057;-81
2022/10/18 05:15:59;;;;;;;8.35;5.53;;;;;;;16.68;99.16;101753.75;4947685;28;20034;-81
2022/10/18 05:18:30;;;;;;;7.55;5.50;;;;;;;16.63;99.23;101755.84;4950090;28;20035;-85
2022/10/18 05:21:08;;;;;;;6.75;5.28;;;;;;;16.63;99.16;101749.69;4963952;28;20608;-89
2022/10/18 05:23:37;;;;;;;9.32;5.65;;;;;;;16.62;98.30;101740.88;4941606;28;20122;-85
2022/10/18 05:26:06;;;;;;;10.57;6.40;;;;;;;16.63;98.10;101737.25;4928910;28;20108;-87
2022/10/18 05:28:34;;;;;;;8.95;6.05;;;;;;;16.64;98.08;101738.94;4966942;28;20050;-85
2022/10/18 05:31:09;;;;;;;8.13;5.45;;;;;;;16.59;98.73;101734.91;4945439;28;20540;-86
2022/10/18 05:33:37;;;;;;;8.38;5.70;;;;;;;16.60;97.73;101734.78;4961522;28;20057;-86
2022/10/18 05:36:05;;;;;;;8.95;6.25;;;;;;;16.65;97.20;101745.97;4946039;29;20167;-86
2022/10/18 05:38:38;;;;;;;9.77;5.75;;;;;;;16.66;96.98;101744.16;4966198;28;20093;-86
2022/10/18 05:41:06;;;;;;;9.82;6.25;;;;;;;16.60;97.71;101740.09;4943695;28;20039;-86
2022/10/18 05:43:34;;;;;;;8.48;6.18;;;;;;;16.59;97.30;101737.56;4954788;28;20146;-87
2022/10/18 05:46:04;;;;;;;9.55;6.40;;;;;;;16.59;97.22;101733.09;4950161;28;20100;-84
2022/10/18 05:48:38;;;;;;;11.93;7.97;;;;;;;16.61;98.32;101736.47;4927463;28;20058;-86
2022/10/18 05:51:06;;;;;;;9.35;6.80;;;;;;;16.55;98.37;101736.91;4949669;28;20051;-86
2022/10/18 05:53:34;;;;;;;9.98;5.93;;;;;;;16.52;98.13;101745.06;4936195;28;20232;-85
2022/10/18 05:56:10;;;;;;;8.90;6.70;;;;;;;16.50;98.95;101739.00;4943803;28;20114;-89
2022/10/18 05:58:39;;;;;;;8.32;6.72;;;;;;;16.52;98.81;101746.88;4956646;28;20054;-85
2022/10/18 06:01:07;;;;;;;10.60;6.72;;;;;;;16.48;98.90;101748.03;4954833;28;20051;-87
2022/10/18 06:03:35;;;;;;;7.88;6.90;;;;;;;16.46;99.12;101743.69;4942810;28;21739;-88
2022/10/18 06:06:05;;;;;;;6.97;5.38;;;;;;;16.44;99.06;101742.09;4945796;28;20044;-85
2022/10/18 06:08:33;;;;;;;8.48;5.75;;;;;;;16.42;98.84;101754.59;4965734;28;20046;-87
2022/10/18 06:11:11;;;;;;;8.57;6.20;;;;;;;16.43;98.56;101751.00;4954113;28;20035;-87
2022/10/18 06:13:43;;;;;;;7.72;6.40;;;;;;;16.41;98.17;101751.09;4967963;28;20079;-86
2022/10/18 06:16:12;;;;;;;9.80;6.20;;;;;;;16.40;99.25;101751.22;4944103;28;20046;-86
2022/10/18 06:18:40;;;;;;;10.07;6.63;;;;;;;16.35;98.86;101737.38;4921382;28;20408;-87
2022/10/18 06:21:09;;;;;;;10.85;6.55;;;;;;;16.39;97.86;101729.09;4920326;28;20051;-86
2022/10/18 06:23:37;;;;;;;13.30;7.63;;;;;;;16.42;98.06;101730.69;4950908;28;20065;-87
2022/10/18 06:26:19;;;;;;;9.77;7.45;;;;;;;16.35;98.97;101740.03;4947293;28;20065;-88
2022/10/18 06:28:46;;;;;;;10.75;8.60;;;;;;;16.33;98.70;101736.59;4933220;28;20050;-87
2022/10/18 06:31:15;;;;;;;10.32;7.80;;;;;;;16.32;98.76;101733.09;4931280;28;20041;-83
2022/10/18 06:33:42;;;;;;;11.93;8.55;;;;;;;16.31;99.02;101735.88;4950918;28;20109;-84
2022/10/18 06:36:12;;;;;;;17.45;8.48;;;;;;;16.34;98.23;101730.34;4923461;28;20035;-84
2022/10/18 06:38:43;;;;;;;13.38;9.40;;;;;;;16.34;98.20;101725.88;4933922;28;20521;-86
2022/10/18 06:41:11;;;;;;;13.43;8.13;;;;;;;16.33;98.44;101715.34;4940645;28;20050;-85
2022/10/18 06:43:39;;;;;;;16.25;7.50;;;;;;;16.32;98.80;101716.31;4919573;28;20109;-86
2022/10/18 06:46:08;;;;;;;13.50;8.00;;;;;;;16.36;98.39;101723.97;4948277;28;20046;-84
2022/10/18 06:48:37;;;;;;;14.50;8.45;;;;;;;16.42;97.51;101739.50;4919214;28;20539;-84
2022/10/18 06:51:06;;;;;;;15.63;9.10;;;;;;;16.39;98.25;101739.72;4924704;28;20074;-86
2022/10/18 06:53:35;;;;;;;10.93;7.82;;;;;;;16.34;98.94;101743.63;4955038;28;20101;-85
2022/10/18 06:56:19;;;;;;;;;;;;;;;16.28;98.86;101739.56;4948491;28;20077;-84
2022/10/18 06:58:49;;;;;;;12.80;8.18;;;;;;;16.32;98.70;101745.53;4956394;28;19929;-85
2022/10/18 07:01:17;;;;;;;15.18;8.32;;;;;;;16.36;98.60;101742.59;4955789;28;20054;-84
2022/10/18 07:03:46;;;;;;;9.45;6.68;;;;;;;16.39;98.94;101747.72;4974576;28;20111;-86
2022/10/18 07:06:16;;;;;;;8.80;6.63;;;;;;;16.43;98.65;101748.34;4923771;28;20073;-86
2022/10/18 07:08:44;;;;;;;9.85;7.15;;;;;;;16.44;98.39;101748.25;4930859;28;20043;-86
2022/10/18 07:15:31;;;;;;;10.57;8.00;;;;;;;16.44;97.96;101763.34;4966955;28;20053;-84
2022/10/18 07:18:00;;;;;;;11.75;8.38;;;;;;;16.45;98.90;101773.88;4928699;28;20035;-82
2022/10/18 07:20:27;;;;;;;10.32;7.70;;;;;;;16.45;98.51;101773.88;4969545;28;20034;-81
2022/10/18 07:22:55;;;;;;;12.73;8.75;;;;;;;16.37;100.00;101776.16;4958583;28;20043;-81
2022/10/18 07:25:23;;;;;;;10.35;8.38;;;;;;;16.31;100.00;101786.34;4948269;28;20034;-81
2022/10/18 07:27:56;;;;;;;13.25;8.88;;;;;;;16.31;100.00;101789.88;4953939;28;20062;-82
2022/10/18 07:30:23;;;;;;;12.23;8.52;;;;;;;16.28;100.00;101786.53;4938763;28;20046;-83
2022/10/18 07:32:51;;;;;;;10.48;6.68;;;;;;;16.29;100.00;101793.56;4943524;28;20053;-85
2022/10/18 07:35:19;;;;;;;10.32;7.13;;;;;;;16.34;100.00;101796.78;4931171;28;20110;-86
2022/10/18 07:37:47;;;;;;;9.93;7.20;;;;;;;16.33;100.00;101805.69;4929594;28;20055;-86
2022/10/18 07:40:14;;;;;;;9.55;6.85;;;;;;;16.30;100.00;101806.75;4964163;28;20405;-87
2022/10/18 07:42:42;;;;;;;6.90;5.93;;;;;;;16.33;100.00;101806.56;4920633;28;20050;-84
2022/10/18 07:45:11;;;;;;;14.23;7.10;;;;;;;16.41;100.00;101819.34;4949911;28;20050;-84
2022/10/18 07:47:39;;;;;;;8.90;6.10;;;;;;;16.43;100.00;101815.63;4923204;28;20071;-85
2022/10/18 07:50:08;;;;;;;9.00;7.10;;;;;;;16.45;100.00;101815.53;4956522;28;20422;-86
2022/10/18 07:52:36;;;;;;;11.68;7.15;;;;;;;16.42;100.00;101811.28;4932945;28;20061;-85
2022/10/18 07:55:04;;;;;;;13.15;7.57;;;;;;;16.44;100.00;101809.38;4936301;28;20169;-85
2022/10/18 08:01:30;;;;;;;15.20;7.30;;;;;;;16.43;100.00;101806.81;4963830;28;20031;-84
2022/10/18 08:03:59;;;;;;;9.15;6.65;;;;;;;16.44;100.00;101800.56;4950773;28;20138;-83
2022/10/18 08:06:33;;;;;;;9.52;7.38;;;;;;;16.43;100.00;101796.16;4939416;28;20051;-84
2022/10/18 08:09:01;;;;;;;9.18;7.22;;;;;;;16.41;100.00;101804.25;4933735;28;20054;-84
2022/10/18 08:11:29;;;;;;;10.65;7.22;;;;;;;16.38;100.00;101798.28;4934102;28;20043;-83
2022/10/18 08:13:56;;;;;;;10.27;6.53;;;;;;;16.37;100.00;101801.91;4948438;28;20039;-86
2022/10/18 08:16:26;;;;;;;8.52;7.55;;;;;;;16.39;100.00;101794.66;4934398;28;20047;-87
2022/10/18 08:19:32;;;;;;;7.38;5.82;;;;;;;16.37;100.00;101791.25;4948334;28;20035;-88
2022/10/18 08:22:39;;;;;;;10.50;6.53;;;;;;;16.40;100.00;101781.28;4962718;28;20057;-84
2022/10/18 08:25:07;;;;;;;11.30;6.45;;;;;;;16.43;100.00;101777.56;4952518;28;20070;-82
2022/10/18 08:27:35;;;;;;;9.15;6.93;;;;;;;16.44;100.00;101780.16;4968830;28;20035;-81
2022/10/18 08:30:02;;;;;;;10.60;8.25;;;;;;;16.46;100.00;101782.69;4946524;28;20117;-83
2022/10/18 08:32:30;;;;;;;12.77;6.90;;;;;;;16.42;100.00;101784.69;4937614;28;20050;-83
2022/10/18 08:34:58;;;;;;;15.20;8.10;;;;;;;16.42;100.00;101792.66;4955153;28;20050;-83
2022/10/18 08:37:25;;;;;;;9.95;7.38;;;;;;;16.41;100.00;101790.13;4954515;28;20474;-83
2022/10/18 08:39:53;;;;;;;15.18;7.82;;;;;;;16.41;100.00;101790.97;4945787;28;20043;-82
2022/10/18 08:43:06;;;;;;;11.55;9.07;;;;;;;16.41;100.00;101792.78;4954373;28;20082;-83
2022/10/18 08:45:36;;;;;;;11.77;8.70;;;;;;;16.37;100.00;101788.59;4956171;28;20042;-84
2022/10/18 08:48:20;;;;;;;13.55;7.55;;;;;;;16.26;100.00;101784.00;4965872;28;20055;-83
2022/10/18 08:50:49;;;;;;;20.17;10.35;;;;;;;16.27;100.00;101787.50;4947319;28;20054;-83
2022/10/18 08:53:49;;;;;;;15.30;8.63;;;;;;;16.20;100.00;101782.56;4971122;28;20057;-83
2022/10/18 08:56:20;;;;;;;15.05;8.95;;;;;;;16.16;100.00;101789.03;4969691;28;20043;-83
2022/10/18 08:58:48;;;;;;;15.27;8.68;;;;;;;16.14;100.00;101793.59;4975080;28;20117;-83
2022/10/18 09:01:28;;;;;;;13.65;7.78;;;;;;;16.13;100.00;101791.91;4942904;29;20101;-83
2022/10/18 09:04:24;;;;;;;13.13;8.23;;;;;;;16.14;100.00;101792.75;4969093;28;20054;-83
2022/10/18 09:07:04;;;;;;;11.77;7.63;;;;;;;16.15;100.00;101797.09;4946663;28;20054;-83
2022/10/18 09:09:44;;;;;;;10.65;6.25;;;;;;;16.07;100.00;101794.06;4957704;28;20048;-83
2022/10/18 09:12:33;;;;;;;8.95;5.45;;;;;;;16.09;100.00;101795.69;4961052;28;20039;-82
2022/10/18 09:15:19;;;;;;;11.75;5.35;;;;;;;16.05;100.00;101799.50;4976469;28;20061;-83
2022/10/18 09:17:58;;;;;;;;;;;;;;;15.98;100.00;101794.66;4963553;28;20035;-82
2022/10/18 09:20:49;;;;;;;7.38;5.00;;;;;;;15.94;100.00;101802.84;4980403;28;19921;-83
2022/10/18 09:23:57;;;;;;;8.82;5.05;;;;;;;15.98;100.00;101798.16;4953423;28;20047;-83
2022/10/18 09:26:25;;;;;;;11.63;5.68;;;;;;;15.99;100.00;101799.91;4948710;28;20082;-83
2022/10/18 09:29:04;;;;;;;9.18;5.25;;;;;;;15.98;100.00;101794.66;4923789;28;20042;-83
2022/10/18 09:32:00;;;;;;;11.50;6.50;;;;;;;15.94;100.00;101796.69;4962514;28;20047;-83
2022/10/18 09:34:33;;;;;;;10.90;6.00;;;;;;;15.85;100.00;101797.22;4972332;28;20043;-84
2022/10/18 09:37:01;;;;;;;9.13;5.32;;;;;;;15.82;100.00;101792.97;4966476;28;20478;-83
2022/10/18 09:39:31;;;;;;;9.98;6.25;;;;;;;15.83;100.00;101784.06;4943206;28;20079;-83
2022/10/18 09:42:07;;;;;;;10.80;6.38;;;;;;;15.75;100.00;101786.31;4942203;28;20055;-83
2022/10/18 09:44:39;;;;;;;11.88;7.18;;;;;;;15.74;100.00;101791.75;4965399;28;20042;-83
2022/10/18 09:47:13;;;;;;;7.45;5.70;;;;;;;15.77;100.00;101791.56;4966951;28;20031;-84
2022/10/18 09:49:46;;;;;;;8.30;5.60;;;;;;;15.76;100.00;101788.06;4955645;28;20134;-83
2022/10/18 09:52:32;;;;;;;9.73;5.30;;;;;;;15.78;100.00;101795.91;4946069;28;20051;-83
2022/10/18 09:55:02;;;;;;;;;;;;;;;15.84;100.00;101803.50;4941040;28;20066;-83
2022/10/18 09:57:38;;;;;;;8.68;5.00;;;;;;;15.83;100.00;101791.16;4959291;28;19925;-82
2022/10/18 10:00:13;;;;;;;6.30;4.72;;;;;;;15.80;100.00;101792.19;4965819;28;20057;-82
2022/10/18 10:02:41;;;;;;;10.35;5.63;;;;;;;15.76;100.00;101796.03;4955500;28;20122;-84
2022/10/18 10:05:13;;;;;;;8.02;5.10;;;;;;;15.79;100.00;101793.16;4969278;28;20047;-84
2022/10/18 10:07:43;;;;;;;8.63;5.60;;;;;;;15.80;100.00;101794.00;4965099;28;20061;-84
2022/10/18 10:10:23;;;;;;;6.88;4.95;;;;;;;15.83;100.00;101802.63;4969885;28;20056;-84
2022/10/18 10:13:12;;;;;;;6.30;4.85;;;;;;;15.86;100.00;101805.13;4968998;28;20035;-84
2022/10/18 10:15:54;;;;;;;8.65;5.15;;;;;;;15.81;100.00;101795.72;4982963;28;20083;-84
2022/10/18 10:18:25;;;;;;;5.72;4.35;;;;;;;15.79;100.00;101794.97;4966640;29;20050;-83
2022/10/18 10:20:54;;;;;;;9.30;4.72;;;;;;;15.79;100.00;101792.31;4974002;28;20051;-83
2022/10/18 10:23:29;;;;;;;6.85;5.20;;;;;;;15.76;100.00;101792.47;4947526;28;20109;-83
2022/10/18 10:26:21;;;;;;;6.57;5.15;;;;;;;15.74;100.00;101791.75;4937943;28;20051;-83
2022/10/18 10:28:49;;;;;;;7.82;4.85;;;;;;;15.75;100.00;101788.97;4958929;28;20055;-82
2022/10/18 10:31:17;;;;;;;11.52;5.43;;;;;;;15.72;100.00;101794.50;4958679;28;20073;-82
2022/10/18 10:33:46;;;;;;;5.30;4.22;;;;;;;15.70;100.00;101788.41;4959649;28;20038;-83
2022/10/18 10:36:20;;;;;;;8.70;5.45;;;;;;;15.69;100.00;101789.38;4961719;28;20102;-82
2022/10/18 10:39:08;;;;;;;6.82;4.60;;;;;;;15.70;100.00;101788.41;4950229;28;20055;-82
2022/10/18 10:41:37;;;;;;;6.88;5.53;;;;;;;15.68;100.00;101777.91;4948967;28;20126;-83
2022/10/18 10:44:13;;;;;;;8.10;5.47;;;;;;;15.66;100.00;101768.31;4976180;28;20034;-83
2022/10/18 10:47:07;;;;;;;7.35;5.03;;;;;;;15.66;100.00;101771.81;4967706;28;20031;-81
2022/10/18 10:49:37;;;;;;;8.48;5.43;;;;;;;15.69;100.00;101765.47;4983199;28;20036;-83
2022/10/18 10:52:16;;;;;;;7.18;5.88;;;;;;;15.70;100.00;101770.69;4966023;28;20054;-82
2022/10/18 10:54:56;;;;;;;8.07;5.15;;;;;;;15.76;100.00;101760.63;4954273;28;20043;-83
2022/10/18 10:57:37;;;;;;;10.48;7.78;;;;;;;15.79;100.00;101755.13;4954294;28;20070;-83
2022/10/18 11:00:05;;;;;;;7.75;5.78;;;;;;;15.80;100.00;101748.88;4966140;28;20047;-84
2022/10/18 11:02:36;;;;;;;6.93;4.40;;;;;;;15.80;100.00;101735.59;4932997;28;20138;-84
2022/10/18 11:05:22;;;;;;;6.10;4.68;;;;;;;15.81;100.00;101742.63;4958140;28;20405;-84
2022/10/18 11:07:57;;;;;;;;;;;;;;;15.87;100.00;101750.19;4965845;28;20043;-83
2022/10/18 11:10:27;;;;;;;7.53;4.45;;;;;;;15.90;100.00;101750.88;4929765;28;19929;-83
2022/10/18 11:13:03;;;;;;;6.65;4.72;;;;;;;15.90;100.00;101755.31;4949991;28;20051;-83
2022/10/18 11:15:46;;;;;;;9.07;5.82;;;;;;;15.91;100.00;101749.06;4978791;28;20050;-83
2022/10/18 11:18:30;;;;;;;7.90;5.78;;;;;;;15.89;100.00;101743.81;4951264;28;20026;-82
2022/10/18 11:21:07;;;;;;;10.10;6.50;;;;;;;15.87;100.00;101751.03;4951464;28;20047;-83
2022/10/18 11:23:37;;;;;;;8.10;5.50;;;;;;;15.88;100.00;101747.44;4952695;28;20035;-84
2022/10/18 11:26:10;;;;;;;8.55;6.70;;;;;;;15.92;100.00;101753.41;4951918;28;20058;-83
2022/10/18 11:29:06;;;;;;;9.82;6.43;;;;;;;15.87;100.00;101745.72;4959766;28;20113;-82
2022/10/18 11:31:46;;;;;;;10.30;6.78;;;;;;;15.77;100.00;101749.09;4958666;28;20055;-84
2022/10/18 11:34:51;;;;;;;10.98;6.72;;;;;;;15.67;100.00;101744.34;4968292;28;20065;-84
2022/10/18 11:37:54;;;;;;;9.07;6.50;;;;;;;15.68;100.00;101742.53;4948336;28;20051;-84
2022/10/18 11:40:43;;;;;;;8.32;6.20;;;;;;;15.65;100.00;101754.19;4966460;28;20050;-83
2022/10/18 11:43:41;;;;;;;9.52;6.72;;;;;;;15.68;100.00;101745.19;4990570;28;20027;-82
2022/10/18 11:46:49;;;;;;;8.40;6.93;;;;;;;15.66;100.00;101737.31;4967082;28;20454;-82
2022/10/18 11:49:52;;;;;;;9.23;7.40;;;;;;;15.61;100.00;101735.88;4948734;28;20118;-82